Time;durP1;ratioP1;P1;durP2;ratioP2;P2;SDS_P1;SDS_P2;PMS_P1;PMS_P2;Temp;Humidity;BMP_temperature;BMP_pressure;BME280_temperature;BME280_humidity;BME280_pressure;Samples;Min_cycle;Max_cycle;Signal;HPM_P1;HPM_P2
2022/03/15 00:00:27;;;;;;;140.98;76.60;;;;;;;;;;5013998;28;20182;-63
2022/03/15 00:02:54;;;;;;;139.80;73.82;;;;;;;;;;5014132;28;20179;-63
2022/03/15 00:05:20;;;;;;;141.90;74.30;;;;;;;;;;5013715;28;20746;-62
2022/03/15 00:07:47;;;;;;;142.93;73.40;;;;;;;;;;5013941;28;20212;-62
2022/03/15 00:10:14;;;;;;;138.30;71.03;;;;;;;;;;5013738;28;20180;-62
2022/03/15 00:12:40;;;;;;;137.43;70.57;;;;;;;;;;5014011;28;20260;-63
2022/03/15 00:15:08;;;;;;;148.85;72.72;;;;;;;;;;5013797;28;20242;-64
2022/03/15 00:17:34;;;;;;;136.02;72.57;;;;;;;;;;5013921;28;20718;-63
2022/03/15 00:20:00;;;;;;;88.45;64.55;;;;;;;;;;5013621;28;20177;-62
2022/03/15 00:22:26;;;;;;;102.77;65.67;;;;;;;;;;5013633;28;20667;-63
2022/03/15 00:24:52;;;;;;;123.97;70.43;;;;;;;;;;5013978;28;20432;-62
2022/03/15 00:27:19;;;;;;;136.40;73.80;;;;;;;;;;5013694;28;20212;-62
2022/03/15 00:29:46;;;;;;;133.80;72.65;;;;;;;;;;5013723;28;20404;-63
2022/03/15 00:32:19;;;;;;;129.98;70.82;;;;;;;;;;5013445;28;20640;-63
2022/03/15 00:34:45;;;;;;;137.95;73.13;;;;;;;;;;5013394;28;20196;-63
2022/03/15 00:37:11;;;;;;;146.90;75.05;;;;;;;;;;5013495;28;20260;-63
2022/03/15 00:39:37;;;;;;;141.50;69.70;;;;;;;;;;5013424;28;20687;-63
2022/03/15 00:42:03;;;;;;;128.47;66.37;;;;;;;;;;5013181;28;20451;-62
2022/03/15 00:44:29;;;;;;;134.70;72.25;;;;;;;;;;5013313;28;20443;-62
2022/03/15 00:46:55;;;;;;;128.77;69.63;;;;;;;;;;5013135;28;20319;-63
2022/03/15 00:49:23;;;;;;;124.40;68.87;;;;;;;;;;5013095;28;20523;-65
2022/03/15 00:51:49;;;;;;;125.85;65.63;;;;;;;;;;5013144;28;20412;-65
2022/03/15 00:54:15;;;;;;;116.47;68.57;;;;;;;;;;5013275;28;20185;-62
2022/03/15 00:56:41;;;;;;;59.17;53.70;;;;;;;;;;5012869;28;20680;-62
2022/03/15 00:59:09;;;;;;;114.00;67.30;;;;;;;;;;5012932;28;20443;-63
2022/03/15 01:01:36;;;;;;;118.85;68.45;;;;;;;;;;5012698;28;20462;-63
2022/03/15 01:04:02;;;;;;;124.90;71.22;;;;;;;;;;5012814;28;20196;-62
2022/03/15 01:06:28;;;;;;;122.50;68.93;;;;;;;;;;5012588;28;20227;-63
2022/03/15 01:08:54;;;;;;;128.90;70.25;;;;;;;;;;5012469;28;20405;-62
2022/03/15 01:11:20;;;;;;;134.95;74.22;;;;;;;;;;5012409;28;20185;-62
2022/03/15 01:13:47;;;;;;;139.93;73.30;;;;;;;;;;5012767;28;20185;-63
2022/03/15 01:16:13;;;;;;;138.68;72.65;;;;;;;;;;5012600;28;20204;-63
2022/03/15 01:18:40;;;;;;;146.88;76.85;;;;;;;;;;5012577;28;20185;-63
2022/03/15 01:21:07;;;;;;;134.18;69.95;;;;;;;;;;5012368;28;20176;-63
2022/03/15 01:23:32;;;;;;;127.10;69.78;;;;;;;;;;5012664;28;20177;-63
2022/03/15 01:25:58;;;;;;;123.40;69.37;;;;;;;;;;5012384;28;20228;-63
2022/03/15 01:28:24;;;;;;;118.87;68.27;;;;;;;;;;5012439;28;20444;-63
2022/03/15 01:30:51;;;;;;;118.95;70.72;;;;;;;;;;5012153;28;20503;-63
2022/03/15 01:33:17;;;;;;;111.85;68.05;;;;;;;;;;5012365;28;20192;-63
2022/03/15 01:35:44;;;;;;;124.57;71.13;;;;;;;;;;5012328;28;20207;-63
2022/03/15 01:38:10;;;;;;;137.30;72.28;;;;;;;;;;5012284;28;20196;-63
2022/03/15 01:40:36;;;;;;;135.27;70.47;;;;;;;;;;5011967;28;20181;-62
2022/03/15 01:43:03;;;;;;;116.57;65.38;;;;;;;;;;5012266;28;20183;-62
2022/03/15 01:45:36;;;;;;;132.68;70.50;;;;;;;;;;5012023;28;20205;-63
2022/03/15 01:48:04;;;;;;;139.77;71.10;;;;;;;;;;5012314;28;20587;-63
2022/03/15 01:50:30;;;;;;;123.05;68.55;;;;;;;;;;5012033;28;20177;-62
2022/03/15 01:52:56;;;;;;;113.25;68.13;;;;;;;;;;5012121;28;20678;-62
2022/03/15 01:55:22;;;;;;;115.60;67.07;;;;;;;;;;5011953;28;20198;-61
2022/03/15 01:57:49;;;;;;;119.43;68.77;;;;;;;;;;5011840;28;20207;-63
2022/03/15 02:00:16;;;;;;;67.18;60.15;;;;;;;;;;5011671;28;20400;-62
2022/03/15 02:02:42;;;;;;;38.17;35.65;;;;;;;;;;5011935;28;20185;-62
2022/03/15 02:05:08;;;;;;;36.50;34.00;;;;;;;;;;5011770;28;20208;-62
2022/03/15 02:07:34;;;;;;;23.70;22.50;;;;;;;;;;5011880;28;20783;-62
2022/03/15 02:10:00;;;;;;;49.47;45.27;;;;;;;;;;5011912;28;20180;-62
2022/03/15 02:12:28;;;;;;;127.43;76.07;;;;;;;;;;5011564;28;20398;-62
2022/03/15 02:14:57;;;;;;;38.55;35.88;;;;;;;;;;5011820;28;20430;-62
2022/03/15 02:17:23;;;;;;;45.22;41.72;;;;;;;;;;5011878;28;20248;-61
2022/03/15 02:19:49;;;;;;;47.87;43.83;;;;;;;;;;5011754;28;20821;-63
2022/03/15 02:22:15;;;;;;;123.78;67.85;;;;;;;;;;5010690;28;20775;-62
2022/03/15 02:24:42;;;;;;;129.97;70.07;;;;;;;;;;5011664;28;20177;-63
2022/03/15 02:27:08;;;;;;;127.40;71.28;;;;;;;;;;5011562;28;20459;-63
2022/03/15 02:29:34;;;;;;;74.90;58.00;;;;;;;;;;5011507;28;20181;-62
2022/03/15 02:32:00;;;;;;;131.33;68.27;;;;;;;;;;5011362;28;20411;-62
2022/03/15 02:34:26;;;;;;;130.00;68.67;;;;;;;;;;5011611;28;20426;-63
2022/03/15 02:36:51;;;;;;;60.28;54.20;;;;;;;;;;5011665;28;20447;-62
2022/03/15 02:39:18;;;;;;;45.53;42.10;;;;;;;;;;5011255;28;20172;-62
2022/03/15 02:41:44;;;;;;;48.40;44.15;;;;;;;;;;5011429;28;20634;-63
2022/03/15 02:44:11;;;;;;;126.00;66.80;;;;;;;;;;5011713;28;20678;-62
2022/03/15 02:46:39;;;;;;;121.15;65.55;;;;;;;;;;5011417;28;20462;-62
2022/03/15 02:49:05;;;;;;;116.90;74.05;;;;;;;;;;5010961;28;20693;-63
2022/03/15 02:51:31;;;;;;;119.57;65.20;;;;;;;;;;5011211;28;20174;-63
2022/03/15 02:53:57;;;;;;;113.55;62.55;;;;;;;;;;4993812;28;20557;-63
2022/03/15 02:56:24;;;;;;;115.50;65.07;;;;;;;;;;5011339;28;20221;-63
2022/03/15 02:58:49;;;;;;;107.57;67.65;;;;;;;;;;5011365;28;20189;-63
2022/03/15 03:01:16;;;;;;;101.83;65.40;;;;;;;;;;5011088;28;20187;-63
2022/03/15 03:03:42;;;;;;;115.70;68.70;;;;;;;;;;5011315;28;20488;-63
2022/03/15 03:06:08;;;;;;;116.25;66.30;;;;;;;;;;5011035;28;20626;-63
2022/03/15 03:08:34;;;;;;;104.70;64.63;;;;;;;;;;5011268;28;20180;-62
2022/03/15 03:11:01;;;;;;;66.43;57.15;;;;;;;;;;5010977;28;20707;-63
2022/03/15 03:13:28;;;;;;;98.93;62.63;;;;;;;;;;5011264;28;20556;-63
2022/03/15 03:15:57;;;;;;;111.97;64.78;;;;;;;;;;5011033;28;20271;-63
2022/03/15 03:18:23;;;;;;;111.03;63.58;;;;;;;;;;5011175;28;20170;-63
2022/03/15 03:20:50;;;;;;;121.43;66.75;;;;;;;;;;5010881;28;20184;-62
2022/03/15 03:23:17;;;;;;;116.93;66.80;;;;;;;;;;5011115;28;20264;-63
2022/03/15 03:25:43;;;;;;;115.80;64.97;;;;;;;;;;5011040;28;20618;-62
2022/03/15 03:28:09;;;;;;;117.22;64.40;;;;;;;;;;5011245;28;20178;-63
2022/03/15 03:30:37;;;;;;;95.32;62.30;;;;;;;;;;5010682;28;20185;-63
2022/03/15 03:33:03;;;;;;;116.05;64.57;;;;;;;;;;5013048;28;20204;-63
2022/03/15 03:35:29;;;;;;;115.57;65.72;;;;;;;;;;5014515;28;20199;-63
2022/03/15 03:37:55;;;;;;;108.60;63.00;;;;;;;;;;5014605;28;20177;-63
2022/03/15 03:40:21;;;;;;;96.43;65.60;;;;;;;;;;5014262;28;20206;-63
2022/03/15 03:42:47;;;;;;;88.10;61.17;;;;;;;;;;5014481;28;20415;-63
2022/03/15 03:45:13;;;;;;;96.47;66.30;;;;;;;;;;5014162;28;20441;-63
2022/03/15 03:47:39;;;;;;;101.80;65.20;;;;;;;;;;5014256;28;20498;-63
2022/03/15 03:50:09;;;;;;;74.20;57.87;;;;;;;;;;5014322;28;20415;-63
2022/03/15 03:52:35;;;;;;;92.18;63.75;;;;;;;;;;5014707;28;20461;-63
2022/03/15 03:55:01;;;;;;;67.30;57.33;;;;;;;;;;5014202;28;20193;-63
2022/03/15 03:57:27;;;;;;;86.40;63.97;;;;;;;;;;5014190;28;20180;-63
2022/03/15 03:59:53;;;;;;;109.03;66.93;;;;;;;;;;5014087;28;20430;-63
2022/03/15 04:02:19;;;;;;;112.83;66.17;;;;;;;;;;5013803;28;20404;-63
2022/03/15 04:04:45;;;;;;;119.37;66.47;;;;;;;;;;5013958;28;21014;-64
2022/03/15 04:07:11;;;;;;;129.05;69.25;;;;;;;;;;5037635;22;20495;-61
2022/03/15 04:09:37;;;;;;;121.88;66.82;;;;;;;;;;5013795;28;20219;-61
2022/03/15 04:12:05;;;;;;;86.90;60.13;;;;;;;;;;5013815;28;20594;-62
2022/03/15 04:14:31;;;;;;;111.78;65.63;;;;;;;;;;5013870;28;20188;-61
2022/03/15 04:16:56;;;;;;;112.00;66.07;;;;;;;;;;5013718;28;20200;-60
2022/03/15 04:19:22;;;;;;;105.80;63.23;;;;;;;;;;5013856;28;20415;-60
2022/03/15 04:21:48;;;;;;;113.60;63.33;;;;;;;;;;5013450;28;20426;-60
2022/03/15 04:24:16;;;;;;;112.25;63.83;;;;;;;;;;5013700;28;20187;-60
2022/03/15 04:26:42;;;;;;;119.85;64.65;;;;;;;;;;5013557;28;20212;-60
2022/03/15 04:29:08;;;;;;;122.32;64.40;;;;;;;;;;5013720;28;20168;-61
2022/03/15 04:31:34;;;;;;;119.70;64.13;;;;;;;;;;5013256;28;20183;-60
2022/03/15 04:34:00;;;;;;;123.40;65.80;;;;;;;;;;5013557;28;20470;-61
2022/03/15 04:36:25;;;;;;;129.73;66.60;;;;;;;;;;5013403;28;20434;-58
2022/03/15 04:38:51;;;;;;;146.70;69.57;;;;;;;;;;5013737;28;20831;-60
2022/03/15 04:41:17;;;;;;;140.03;69.40;;;;;;;;;;5013173;28;20203;-61
2022/03/15 04:43:43;;;;;;;145.60;71.57;;;;;;;;;;5012631;28;20438;-61
2022/03/15 04:46:11;;;;;;;142.10;69.50;;;;;;;;;;5013245;28;20467;-59
2022/03/15 04:48:38;;;;;;;131.65;67.05;;;;;;;;;;5013230;28;20429;-61
2022/03/15 04:51:03;;;;;;;138.27;66.97;;;;;;;;;;5013042;28;20242;-61
2022/03/15 04:53:30;;;;;;;127.77;66.80;;;;;;;;;;5013264;28;20267;-59
2022/03/15 04:55:55;;;;;;;127.78;64.22;;;;;;;;;;5013162;28;20420;-59
2022/03/15 04:58:23;;;;;;;129.00;65.57;;;;;;;;;;5013274;28;20307;-60
2022/03/15 05:00:49;;;;;;;125.50;66.22;;;;;;;;;;5012892;28;20904;-61
2022/03/15 05:03:16;;;;;;;126.55;65.50;;;;;;;;;;5012899;28;20177;-61
2022/03/15 05:05:43;;;;;;;128.80;67.32;;;;;;;;;;5012534;28;20288;-60
2022/03/15 05:08:09;;;;;;;86.03;59.25;;;;;;;;;;5012944;28;20188;-58
2022/03/15 05:13:20;;;;;;;130.57;67.05;;;;;;;;;;5012909;28;20408;-63
2022/03/15 05:15:47;;;;;;;131.43;68.90;;;;;;;;;;5012974;28;20672;-61
2022/03/15 05:18:12;;;;;;;114.88;64.45;;;;;;;;;;5012495;28;20262;-61
2022/03/15 05:20:38;;;;;;;116.87;61.27;;;;;;;;;;5012470;28;20662;-60
2022/03/15 05:23:04;;;;;;;118.65;64.60;;;;;;;;;;5012736;28;20827;-61
2022/03/15 05:25:30;;;;;;;127.55;64.30;;;;;;;;;;5012424;28;20194;-61
2022/03/15 05:27:57;;;;;;;139.77;70.03;;;;;;;;;;5012391;28;20258;-59
2022/03/15 05:30:23;;;;;;;142.73;73.47;;;;;;;;;;5012285;28;20164;-60
2022/03/15 05:32:49;;;;;;;139.18;72.32;;;;;;;;;;5012314;28;20586;-60
2022/03/15 05:35:15;;;;;;;142.10;70.57;;;;;;;;;;5012475;28;20227;-60
2022/03/15 05:37:41;;;;;;;134.23;66.75;;;;;;;;;;5013667;28;20607;-61
2022/03/15 05:40:08;;;;;;;139.55;69.00;;;;;;;;;;5013284;28;20720;-61
2022/03/15 05:42:34;;;;;;;135.02;68.50;;;;;;;;;;5012872;28;20181;-60
2022/03/15 05:45:00;;;;;;;132.87;66.17;;;;;;;;;;5012676;28;20263;-60
2022/03/15 05:47:25;;;;;;;140.27;71.13;;;;;;;;;;5012198;28;20474;-61
2022/03/15 05:49:51;;;;;;;137.73;67.77;;;;;;;;;;5012088;28;20305;-61
2022/03/15 05:52:17;;;;;;;131.70;66.47;;;;;;;;;;5011988;28;20418;-61
2022/03/15 05:54:43;;;;;;;134.77;64.77;;;;;;;;;;5012170;28;20420;-61
2022/03/15 05:57:09;;;;;;;135.00;69.80;;;;;;;;;;5011927;28;20795;-61
2022/03/15 05:59:35;;;;;;;144.25;72.38;;;;;;;;;;5011998;28;20416;-61
2022/03/15 06:02:01;;;;;;;138.10;66.00;;;;;;;;;;5011953;28;20545;-61
2022/03/15 06:04:27;;;;;;;140.43;67.47;;;;;;;;;;5012153;28;21019;-61
2022/03/15 06:06:57;;;;;;;129.18;65.57;;;;;;;;;;5016344;28;21068;-60
2022/03/15 06:09:23;;;;;;;133.02;65.28;;;;;;;;;;5012325;28;20172;-59
2022/03/15 06:11:50;;;;;;;144.00;68.85;;;;;;;;;;5012458;28;20180;-61
2022/03/15 06:14:16;;;;;;;60.75;54.45;;;;;;;;;;5012138;28;20252;-60
2022/03/15 06:16:42;;;;;;;37.10;34.50;;;;;;;;;;5012020;28;20239;-61
2022/03/15 06:19:08;;;;;;;150.87;70.60;;;;;;;;;;5011781;28;20428;-61
2022/03/15 06:21:34;;;;;;;147.10;68.10;;;;;;;;;;5011595;28;20422;-61
2022/03/15 06:24:00;;;;;;;153.10;69.77;;;;;;;;;;5011906;28;20470;-60
2022/03/15 06:26:26;;;;;;;143.93;68.85;;;;;;;;;;5011716;28;20459;-61
2022/03/15 06:28:52;;;;;;;82.80;60.38;;;;;;;;;;5011762;28;20253;-60
2022/03/15 06:31:18;;;;;;;145.48;75.32;;;;;;;;;;5011512;28;20173;-61
2022/03/15 06:33:45;;;;;;;142.47;68.63;;;;;;;;;;5011749;28;20180;-60
2022/03/15 06:36:15;;;;;;;156.27;72.63;;;;;;;;;;5011748;28;20448;-62
2022/03/15 06:38:41;;;;;;;161.57;76.97;;;;;;;;;;5011844;28;20252;-60
2022/03/15 06:41:08;;;;;;;153.80;73.22;;;;;;;;;;5011483;28;20525;-60
2022/03/15 06:43:34;;;;;;;149.32;74.05;;;;;;;;;;5011683;28;20549;-60
2022/03/15 06:46:00;;;;;;;158.85;77.80;;;;;;;;;;5011476;28;20197;-60
2022/03/15 06:48:26;;;;;;;167.50;75.88;;;;;;;;;;5011665;28;20513;-61
2022/03/15 06:50:53;;;;;;;161.63;76.37;;;;;;;;;;5011252;28;20176;-62
2022/03/15 06:53:20;;;;;;;154.18;76.97;;;;;;;;;;5011578;28;20516;-61
2022/03/15 06:55:46;;;;;;;159.20;81.32;;;;;;;;;;5011485;28;20288;-61
2022/03/15 06:58:12;;;;;;;151.37;77.13;;;;;;;;;;5011606;28;20280;-61
2022/03/15 07:00:38;;;;;;;153.60;79.17;;;;;;;;;;5011279;28;20802;-60
2022/03/15 07:03:05;;;;;;;143.53;76.90;;;;;;;;;;5011508;28;20908;-60
2022/03/15 07:05:31;;;;;;;148.25;75.43;;;;;;;;;;5011350;28;20531;-61
2022/03/15 07:07:57;;;;;;;156.80;89.32;;;;;;;;;;5013444;28;20256;-61
2022/03/15 07:10:23;;;;;;;150.15;82.78;;;;;;;;;;5014995;28;20650;-62
2022/03/15 07:12:49;;;;;;;151.23;76.82;;;;;;;;;;5015102;28;20304;-61
2022/03/15 07:15:16;;;;;;;149.40;78.97;;;;;;;;;;5015079;28;20642;-58
2022/03/15 07:17:50;;;;;;;148.88;77.60;;;;;;;;;;5015049;28;20413;-61
2022/03/15 07:20:16;;;;;;;150.45;79.40;;;;;;;;;;5014849;28;20239;-61
2022/03/15 07:22:42;;;;;;;151.90;77.15;;;;;;;;;;5013683;28;20184;-61
2022/03/15 07:25:08;;;;;;;146.77;74.80;;;;;;;;;;5014922;28;20170;-60
2022/03/15 07:27:34;;;;;;;135.02;73.70;;;;;;;;;;5015005;28;20486;-61
2022/03/15 07:30:00;;;;;;;138.00;76.73;;;;;;;;;;5014746;28;20175;-61
2022/03/15 07:32:26;;;;;;;119.40;73.13;;;;;;;;;;5014452;28;20908;-61
2022/03/15 07:34:52;;;;;;;137.87;75.40;;;;;;;;;;5014860;28;20181;-61
2022/03/15 07:37:18;;;;;;;108.90;73.53;;;;;;;;;;5014518;28;20436;-61
2022/03/15 07:39:45;;;;;;;138.27;77.45;;;;;;;;;;5014625;28;20440;-61
2022/03/15 07:42:11;;;;;;;130.95;74.57;;;;;;;;;;5014661;28;20186;-61
2022/03/15 07:44:37;;;;;;;133.10;75.75;;;;;;;;;;5014738;28;20205;-60
2022/03/15 07:47:03;;;;;;;125.32;72.65;;;;;;;;;;5014804;28;20723;-61
2022/03/15 07:49:29;;;;;;;127.97;72.85;;;;;;;;;;5021717;28;20183;-61
2022/03/15 07:51:56;;;;;;;103.67;71.60;;;;;;;;;;5034126;28;20176;-62
2022/03/15 07:54:22;;;;;;;130.77;75.55;;;;;;;;;;5033689;28;20434;-61
2022/03/15 07:56:50;;;;;;;133.37;74.80;;;;;;;;;;5033754;28;20272;-61
2022/03/15 07:59:16;;;;;;;128.02;81.82;;;;;;;;;;5034079;28;20487;-62
2022/03/15 08:01:41;;;;;;;116.47;78.37;;;;;;;;;;5033927;28;20296;-62
2022/03/15 08:04:07;;;;;;;132.90;84.37;;;;;;;;;;5033957;28;20509;-61
2022/03/15 08:06:36;;;;;;;132.17;84.97;;;;;;;;;;5027593;28;20476;-62
2022/03/15 08:09:05;;;;;;;124.68;81.32;;;;;;;;;;5014031;28;20420;-61
2022/03/15 08:11:32;;;;;;;137.30;84.60;;;;;;;;;;5013791;28;20756;-58
2022/03/15 08:13:59;;;;;;;127.15;83.95;;;;;;;;;;5014322;28;20568;-61
2022/03/15 08:16:25;;;;;;;136.63;86.40;;;;;;;;;;5013668;28;20285;-59
2022/03/15 08:18:51;;;;;;;137.40;88.15;;;;;;;;;;5012902;28;20178;-60
2022/03/15 08:21:17;;;;;;;79.70;72.20;;;;;;;;;;5013655;28;20620;-61
2022/03/15 08:23:43;;;;;;;133.93;84.68;;;;;;;;;;5013826;28;20205;-62
2022/03/15 08:26:09;;;;;;;143.68;88.75;;;;;;;;;;5013724;28;20197;-62
2022/03/15 08:28:36;;;;;;;140.18;91.18;;;;;;;;;;5012927;28;20216;-59
2022/03/15 08:31:02;;;;;;;134.05;88.50;;;;;;;;;;5013357;28;20177;-61
2022/03/15 08:33:28;;;;;;;127.75;90.35;;;;;;;;;;5013796;28;20189;-61
2022/03/15 08:35:54;;;;;;;128.30;96.70;;;;;;;;;;5013824;28;20198;-62
2022/03/15 08:38:20;;;;;;;141.93;103.35;;;;;;;;;;5013137;28;20899;-59
2022/03/15 08:40:46;;;;;;;140.80;100.47;;;;;;;;;;5013339;28;20180;-60
2022/03/15 08:43:12;;;;;;;133.98;100.95;;;;;;;;;;5013533;28;20541;-61
2022/03/15 08:45:39;;;;;;;140.80;101.70;;;;;;;;;;5013416;28;20193;-62
2022/03/15 08:48:05;;;;;;;148.68;105.05;;;;;;;;;;5013332;28;20522;-61
2022/03/15 08:50:32;;;;;;;131.55;101.55;;;;;;;;;;5012667;28;20185;-61
2022/03/15 08:52:58;;;;;;;134.77;105.78;;;;;;;;;;5013258;28;20166;-61
2022/03/15 08:55:26;;;;;;;135.60;104.83;;;;;;;;;;5012698;28;20200;-62
2022/03/15 08:57:52;;;;;;;147.65;109.18;;;;;;;;;;5013230;28;20415;-60
2022/03/15 09:00:18;;;;;;;148.45;115.95;;;;;;;;;;5012300;28;20185;-60
2022/03/15 09:02:44;;;;;;;161.75;109.43;;;;;;;;;;5013135;28;20246;-61
2022/03/15 09:05:11;;;;;;;173.83;111.20;;;;;;;;;;5013476;28;20181;-60
2022/03/15 09:07:38;;;;;;;170.40;111.10;;;;;;;;;;5013049;28;20491;-59
2022/03/15 09:10:04;;;;;;;162.82;105.35;;;;;;;;;;5013180;28;20248;-59
2022/03/15 09:12:30;;;;;;;162.98;100.60;;;;;;;;;;5014652;28;20219;-61
2022/03/15 09:14:56;;;;;;;149.87;106.27;;;;;;;;;;5015899;28;20577;-59
2022/03/15 09:17:22;;;;;;;145.20;100.03;;;;;;;;;;5013346;28;20827;-56
2022/03/15 09:19:51;;;;;;;154.67;100.27;;;;;;;;;;5013038;28;20867;-60
2022/03/15 09:22:17;;;;;;;139.43;97.20;;;;;;;;;;5012515;28;20408;-59
2022/03/15 09:24:42;;;;;;;135.80;100.07;;;;;;;;;;5012367;28;20541;-57
2022/03/15 09:27:09;;;;;;;127.23;96.77;;;;;;;;;;5011643;28;20476;-57
2022/03/15 09:29:36;;;;;;;122.03;97.97;;;;;;;;;;5011592;28;20948;-61
2022/03/15 09:32:03;;;;;;;129.23;93.60;;;;;;;;;;5012673;28;20176;-61
2022/03/15 09:34:30;;;;;;;133.85;92.30;;;;;;;;;;5013488;28;20181;-59
2022/03/15 09:36:57;;;;;;;131.48;93.82;;;;;;;;;;5013205;28;20201;-57
2022/03/15 09:39:23;;;;;;;142.73;96.43;;;;;;;;;;5012955;28;20569;-59
2022/03/15 09:41:53;;;;;;;153.20;97.83;;;;;;;;;;5012264;28;20182;-58
2022/03/15 09:44:19;;;;;;;157.10;98.45;;;;;;;;;;5012501;28;20479;-60
2022/03/15 09:46:51;;;;;;;156.05;98.70;;;;;;;;;;5012380;28;20259;-60
2022/03/15 09:49:18;;;;;;;162.60;94.97;;;;;;;;;;5012517;28;20170;-57
2022/03/15 09:51:45;;;;;;;175.90;102.65;;;;;;;;;;5012587;28;20659;-60
2022/03/15 09:54:12;;;;;;;177.27;102.07;;;;;;;;;;5012511;28;20246;-59
2022/03/15 09:56:39;;;;;;;182.93;97.97;;;;;;;;;;5012487;28;20744;-59
2022/03/15 09:59:09;;;;;;;170.45;100.78;;;;;;;;;;5012301;28;20711;-60
2022/03/15 10:01:35;;;;;;;167.07;97.53;;;;;;;;;;5012146;28;20228;-59
2022/03/15 10:04:01;;;;;;;173.25;99.75;;;;;;;;;;5012183;28;20180;-57
2022/03/15 10:06:27;;;;;;;181.37;103.10;;;;;;;;;;5012826;28;20299;-59
2022/03/15 10:08:53;;;;;;;182.90;104.23;;;;;;;;;;5012139;28;20400;-61
2022/03/15 10:11:19;;;;;;;184.57;103.87;;;;;;;;;;5011999;28;20788;-58
2022/03/15 10:13:47;;;;;;;172.68;103.10;;;;;;;;;;5010615;28;20413;-61
2022/03/15 10:16:14;;;;;;;189.50;106.75;;;;;;;;;;5012174;28;20236;-61
2022/03/15 10:18:39;;;;;;;185.20;107.40;;;;;;;;;;5012296;28;20645;-59
2022/03/15 10:21:05;;;;;;;181.00;109.53;;;;;;;;;;5011637;28;20219;-60
2022/03/15 10:23:38;;;;;;;184.37;105.60;;;;;;;;;;5010501;28;20456;-60
2022/03/15 10:26:04;;;;;;;194.02;107.70;;;;;;;;;;5012337;28;20812;-61
2022/03/15 10:28:31;;;;;;;191.65;116.03;;;;;;;;;;5011378;28;20641;-59
2022/03/15 10:30:59;;;;;;;122.35;101.75;;;;;;;;;;5011696;28;20641;-61
2022/03/15 10:33:26;;;;;;;98.95;89.85;;;;;;;;;;5012009;28;20252;-60
2022/03/15 10:35:53;;;;;;;65.20;60.70;;;;;;;;;;5011842;28;20201;-61
2022/03/15 10:38:20;;;;;;;92.22;84.63;;;;;;;;;;5010601;28;20289;-61
2022/03/15 10:40:47;;;;;;;138.75;106.50;;;;;;;;;;5011426;28;20228;-61
2022/03/15 10:43:13;;;;;;;185.02;110.70;;;;;;;;;;5014359;28;20166;-61
2022/03/15 10:45:58;;;;;;;186.93;110.33;;;;;;;;;;5015713;28;20244;-61
2022/03/15 10:48:26;;;;;;;188.38;110.93;;;;;;;;;;5015788;28;20820;-60
2022/03/15 10:50:56;;;;;;;167.07;109.72;;;;;;;;;;5015273;28;20174;-61
2022/03/15 10:53:28;;;;;;;178.75;111.25;;;;;;;;;;5015490;28;20178;-61
2022/03/15 10:56:13;;;;;;;192.95;115.45;;;;;;;;;;5015605;28;20669;-61
2022/03/15 10:58:51;;;;;;;195.05;112.07;;;;;;;;;;5015669;28;20184;-61
2022/03/15 11:01:21;;;;;;;173.13;112.30;;;;;;;;;;5015198;28;20170;-61
2022/03/15 11:03:53;;;;;;;202.73;114.88;;;;;;;;;;5015209;28;20189;-61
2022/03/15 11:06:30;;;;;;;195.80;115.85;;;;;;;;;;5018745;28;20220;-61
2022/03/15 11:08:56;;;;;;;194.75;116.25;;;;;;;;;;5034800;28;20664;-60
2022/03/15 11:11:27;;;;;;;200.40;117.35;;;;;;;;;;5034373;28;20587;-60
2022/03/15 11:14:06;;;;;;;199.38;118.05;;;;;;;;;;5033618;28;20177;-60
2022/03/15 11:16:36;;;;;;;201.60;115.53;;;;;;;;;;5035108;28;20627;-61
2022/03/15 11:19:03;;;;;;;205.57;114.47;;;;;;;;;;5034771;28;20176;-61
2022/03/15 11:21:31;;;;;;;153.57;108.70;;;;;;;;;;5034768;28;20195;-61
2022/03/15 11:23:59;;;;;;;168.65;109.65;;;;;;;;;;5034265;28;20259;-58
2022/03/15 11:26:28;;;;;;;169.48;107.22;;;;;;;;;;5034608;28;20201;-61
2022/03/15 11:28:54;;;;;;;109.53;99.03;;;;;;;;;;5034558;28;20219;-56
2022/03/15 11:31:21;;;;;;;88.50;81.93;;;;;;;;;;5034569;28;20612;-62
2022/03/15 11:33:47;;;;;;;195.82;114.10;;;;;;;;;;5034419;28;20226;-60
2022/03/15 11:36:14;;;;;;;189.50;112.63;;;;;;;;;;5034109;28;20212;-62
2022/03/15 11:38:41;;;;;;;188.63;114.30;;;;;;;;;;5034703;28;20169;-60
2022/03/15 11:41:10;;;;;;;184.27;111.78;;;;;;;;;;5034053;28;20177;-62
2022/03/15 11:44:00;;;;;;;202.65;117.90;;;;;;;;;;5034727;28;20513;-63
2022/03/15 11:46:43;;;;;;;208.65;112.97;;;;;;;;;;5033818;28;20204;-58
2022/03/15 11:49:12;;;;;;;193.55;107.93;;;;;;;;;;5034230;28;20674;-61
2022/03/15 11:51:50;;;;;;;170.77;104.93;;;;;;;;;;5033859;28;20181;-62
2022/03/15 11:54:16;;;;;;;188.13;108.03;;;;;;;;;;5034068;28;20698;-62
2022/03/15 11:56:45;;;;;;;181.57;107.87;;;;;;;;;;5033455;28;20196;-61
2022/03/15 11:59:11;;;;;;;164.25;107.35;;;;;;;;;;5034021;28;20451;-62
2022/03/15 12:01:44;;;;;;;188.40;108.30;;;;;;;;;;5033840;28;20204;-61
2022/03/15 12:04:10;;;;;;;188.80;106.03;;;;;;;;;;5033856;28;20403;-60
2022/03/15 12:06:36;;;;;;;190.07;109.35;;;;;;;;;;5033685;28;20262;-61
2022/03/15 12:09:11;;;;;;;185.00;106.85;;;;;;;;;;5033270;28;20215;-61
2022/03/15 12:11:43;;;;;;;169.88;106.10;;;;;;;;;;5033770;28;20196;-61
2022/03/15 12:14:09;;;;;;;173.48;103.05;;;;;;;;;;5033899;28;20177;-59
2022/03/15 12:16:36;;;;;;;184.20;102.78;;;;;;;;;;5033650;28;20200;-57
2022/03/15 12:19:10;;;;;;;171.80;102.13;;;;;;;;;;5019861;28;20205;-61
2022/03/15 12:21:50;;;;;;;164.23;96.10;;;;;;;;;;5013860;28;20185;-59
2022/03/15 12:24:18;;;;;;;156.65;97.97;;;;;;;;;;5013719;28;20177;-62
2022/03/15 12:26:46;;;;;;;148.27;92.95;;;;;;;;;;5013600;28;20744;-62
2022/03/15 12:29:16;;;;;;;174.68;107.38;;;;;;;;;;5013565;28;20645;-61
2022/03/15 12:31:46;;;;;;;170.27;103.47;;;;;;;;;;5013439;28;20632;-58
2022/03/15 12:34:13;;;;;;;186.13;106.10;;;;;;;;;;5013761;28;20205;-61
2022/03/15 12:36:41;;;;;;;192.50;105.32;;;;;;;;;;5013554;28;20216;-61
2022/03/15 12:39:11;;;;;;;182.30;100.78;;;;;;;;;;5013624;28;20185;-59
2022/03/15 12:41:39;;;;;;;183.57;102.20;;;;;;;;;;5013242;28;20170;-60
2022/03/15 12:44:05;;;;;;;97.03;86.75;;;;;;;;;;5013720;28;20565;-61
2022/03/15 12:46:31;;;;;;;89.97;81.68;;;;;;;;;;5014233;28;20193;-59
2022/03/15 12:49:05;;;;;;;38.17;36.05;;;;;;;;;;5013260;28;20221;-60
2022/03/15 12:51:38;;;;;;;30.67;29.17;;;;;;;;;;5013069;28;20178;-61
2022/03/15 12:54:06;;;;;;;41.22;38.85;;;;;;;;;;5013053;28;20204;-60
2022/03/15 12:56:32;;;;;;;72.55;66.55;;;;;;;;;;5015305;28;20334;-62
2022/03/15 12:58:59;;;;;;;33.35;31.63;;;;;;;;;;5013263;28;20614;-59
2022/03/15 13:01:26;;;;;;;43.28;40.58;;;;;;;;;;5013680;28;20288;-56
2022/03/15 13:03:53;;;;;;;27.50;26.20;;;;;;;;;;5013425;28;20203;-61
2022/03/15 13:06:21;;;;;;;31.45;29.88;;;;;;;;;;5012444;28;20300;-58
2022/03/15 13:08:57;;;;;;;63.03;58.42;;;;;;;;;;5012841;28;20166;-61
2022/03/15 13:11:24;;;;;;;91.32;82.82;;;;;;;;;;5012579;28;20702;-61
2022/03/15 13:13:50;;;;;;;96.15;84.63;;;;;;;;;;5013064;28;20261;-60
2022/03/15 13:16:21;;;;;;;110.80;84.97;;;;;;;;;;5012779;28;20193;-61
2022/03/15 13:18:47;;;;;;;92.38;82.45;;;;;;;;;;5012847;28;20408;-60
2022/03/15 13:21:13;;;;;;;134.13;89.10;;;;;;;;;;5012481;28;20177;-60
2022/03/15 13:23:41;;;;;;;188.73;97.68;;;;;;;;;;5012893;28;20170;-61
2022/03/15 13:26:12;;;;;;;180.52;97.25;;;;;;;;;;5012487;28;20197;-60
2022/03/15 13:28:42;;;;;;;181.52;95.80;;;;;;;;;;5012985;28;20683;-60
2022/03/15 13:31:09;;;;;;;191.35;95.85;;;;;;;;;;5012321;28;20261;-60
2022/03/15 13:33:38;;;;;;;178.18;94.53;;;;;;;;;;5012184;28;20525;-60
2022/03/15 13:36:06;;;;;;;204.68;99.63;;;;;;;;;;5010951;28;20205;-59
2022/03/15 13:38:34;;;;;;;197.38;97.25;;;;;;;;;;5012631;28;20223;-61
2022/03/15 13:41:00;;;;;;;194.98;95.43;;;;;;;;;;5012221;28;20228;-60
2022/03/15 13:43:27;;;;;;;197.20;98.22;;;;;;;;;;5012416;28;20173;-59
2022/03/15 13:45:54;;;;;;;185.40;98.45;;;;;;;;;;5012221;28;20285;-61
2022/03/15 13:48:31;;;;;;;177.93;98.40;;;;;;;;;;5012182;28;20197;-61
2022/03/15 13:51:07;;;;;;;183.05;100.05;;;;;;;;;;5011864;28;20220;-60
2022/03/15 13:53:53;;;;;;;195.25;98.60;;;;;;;;;;5012260;28;20757;-60
2022/03/15 13:56:23;;;;;;;207.68;104.45;;;;;;;;;;5011996;28;20209;-59
2022/03/15 13:59:09;;;;;;;207.32;104.15;;;;;;;;;;5012018;28;20562;-60
2022/03/15 14:01:37;;;;;;;195.68;101.30;;;;;;;;;;5011831;28;20170;-60
2022/03/15 14:04:10;;;;;;;94.97;86.03;;;;;;;;;;5012027;28;20581;-59
2022/03/15 14:06:39;;;;;;;105.55;89.90;;;;;;;;;;5011734;28;20236;-60